Alton, Missouri
Current Conditions -  °F | °C
As of 10:53 AM on Tuesday 21 Oct 2014 (Local Time) from KUNO Reporting Station
Clear Clear  
Wind Chill: 66°   Ceiling: Unl
Heat Index: 66°   Visibility: 10mi
Dew Point: 47°   Wind: 6mph
Humidity: 50%   Direction: 240°WSW
Pressure: 30.15"   Gusts: NA
Location:  36.69°N, 91.4°W
Report Text: KUNO 211553Z AUTO 24005KT 10SM CLR 19/08 A3015 RMK AO2 SLP206 T01890083
Loading
Personal Weather Stations






























Interactive Weather Map
Tropical Storm Tracking
New forecast layout! Learn more

10-Day Weather Forecast

Advertisements
Track Severe Weather on mobile